This is the latest recevied weather packets stored in our database for station/object GW1572. If no packets are shown the sender has not sent any weather packets the latest 10 day(s).
| Time | Temp. | Humidity | Pressure | Rain* | Wind** | Luminosity | Snow |
|---|---|---|---|---|---|---|---|
| 1777602278 | 6.11° C | 95% | 1008.4 hPa | 0 mm | - | - | - |
| 1777600495 | 6.67° C | 93% | 1008.1 hPa | 0 mm | - | - | - |
| 1777598331 | 7.78° C | 89% | 1007.4 hPa | 0 mm | - | - | - |
| 1777595807 | 9.44° C | 82% | 1007.4 hPa | 0 mm | - | - | - |
| 1777592921 | 13.89° C | 67% | 1006.7 hPa | 0 mm | - | - | - |
| 1777590413 | 14.44° C | 59% | 1006.7 hPa | 0 mm | - | - | - |
| 1777588951 | 14.44° C | 61% | 1006.7 hPa | 0 mm | - | - | - |
| 1777584619 | 16.11° C | 57% | 1007.1 hPa | 0 mm | - | - | - |
| 1777583566 | 15.56° C | 55% | 1007.1 hPa | 0 mm | - | - | - |
| 1777573462 | 12.22° C | 72% | 1007.7 hPa | 0 mm | - | - | - |
| 1777573122 | 12.22° C | 71% | 1007.7 hPa | 0 mm | - | - | - |
| 1777568074 | 12.22° C | 72% | 1007.7 hPa | 0 mm | - | - | - |
| 1777564853 | 11.11° C | 73% | 1007.7 hPa | 0 mm | - | - | - |
| 1777564461 | 11.11° C | 74% | 1007.7 hPa | 0 mm | - | - | - |
| 1777555118 | 9.44° C | 85% | 1006.7 hPa | 0 mm | - | - | - |
| 1777554031 | 9.44° C | 86% | 1006.4 hPa | 0 mm | - | - | - |
| 1777552218 | 8.89° C | 90% | 1006.4 hPa | 0 mm | - | - | - |
| 1777547553 | 6.67° C | 99% | 1005 hPa | 0 mm | - | - | - |
| 1777543972 | 7.22° C | 99% | 1004.4 hPa | 0 mm | - | - | - |
| 1777541793 | 7.78° C | 98% | 1004 hPa | 0 mm | - | - | - |
| 1777541092 | 8.33° C | 97% | 1004 hPa | 0 mm | - | - | - |
| 1777539636 | 9.44° C | 91% | 1004 hPa | 0 mm | - | - | - |
| 1777533490 | 10.56° C | 94% | 1004.4 hPa | 0 mm | - | - | - |
| 1777533164 | 10.56° C | 94% | 1004.4 hPa | 0 mm | - | - | - |
| 1777529177 | 10.56° C | 99% | 1004.7 hPa | 0 mm | - | - | - |
* Rain since midnight (hover to see other rain measurements)
** Current wind speed in m/s (hover to see current wind gust speed)